createdAt,value
2018-05-17T00:00:20.899Z,1369.70
2018-05-17T00:02:50.510Z,1433.37
2018-05-17T00:05:20.292Z,1160.07
2018-05-17T00:07:51.138Z,445.77
2018-05-17T00:10:20.861Z,119.47
2018-05-17T00:12:51.017Z,283.70
2018-05-17T00:15:21.373Z,209.33
2018-05-17T00:17:51.723Z,520.43
2018-05-17T00:20:21.296Z,729.30
2018-05-17T00:22:50.788Z,722.23
2018-05-17T00:25:20.303Z,561.27
2018-05-17T00:27:50.798Z,241.43
2018-05-17T00:30:20.540Z,115.27
2018-05-17T00:32:50.782Z,99.07
2018-05-17T00:35:20.628Z,143.17
2018-05-17T00:37:50.330Z,1505.40
2018-05-17T00:40:20.440Z,698.30
2018-05-17T00:42:50.186Z,721.63
2018-05-17T00:45:20.070Z,800.53
2018-05-17T00:47:49.743Z,561.70
2018-05-17T00:50:19.707Z,776.70
2018-05-17T00:53:06.910Z,454.53
2018-05-17T00:55:36.432Z,703.03
2018-05-17T00:58:06.294Z,746.77
2018-05-17T01:00:35.969Z,560.10
2018-05-17T01:03:05.792Z,857.57
2018-05-17T01:05:35.414Z,1034.07
2018-05-17T01:08:05.963Z,512.53
2018-05-17T01:10:35.750Z,1071.23
2018-05-17T01:13:05.436Z,881.07
2018-05-17T01:15:35.054Z,405.17
2018-05-17T01:18:04.648Z,666.93
2018-05-17T01:20:34.266Z,879.37
2018-05-17T01:23:03.854Z,498.07
2018-05-17T01:25:34.551Z,659.70
2018-05-17T01:28:04.331Z,819.70
2018-05-17T01:30:33.941Z,798.90
2018-05-17T01:33:03.817Z,805.13
2018-05-17T01:35:33.437Z,358.83
2018-05-17T01:38:20.867Z,467.17
2018-05-17T01:40:50.473Z,362.70
2018-05-17T01:43:20.209Z,259.53
2018-05-17T01:45:50.044Z,408.93
2018-05-17T01:48:21.989Z,678.37
2018-05-17T01:50:51.691Z,709.50
2018-05-17T01:53:21.297Z,591.00
2018-05-17T01:56:12.803Z,114.83
2018-05-17T01:58:44.227Z,26.63
2018-05-17T02:01:15.023Z,29.57
2018-05-17T02:03:46.306Z,31.40
2018-05-17T02:06:15.977Z,33.57
2018-05-17T02:08:45.690Z,33.50
2018-05-17T02:11:15.390Z,479.10
2018-05-17T02:13:44.943Z,906.23
2018-05-17T02:16:14.506Z,885.17
2018-05-17T02:18:44.318Z,873.23
2018-05-17T02:21:13.910Z,48.87
2018-05-17T02:23:44.218Z,538.03
2018-05-17T02:26:13.837Z,459.10
2018-05-17T02:28:50.623Z,50.60
2018-05-17T02:31:21.267Z,58.90
2018-05-17T02:33:50.932Z,58.57
2018-05-17T02:36:21.385Z,53.97
2018-05-17T02:38:51.120Z,49.30
2018-05-17T02:41:20.917Z,186.87
2018-05-17T02:43:50.541Z,80.90
2018-05-17T02:46:20.845Z,167.67
2018-05-17T02:48:50.419Z,199.23
2018-05-17T02:51:28.514Z,171.23
2018-05-17T02:54:09.829Z,534.93
2018-05-17T02:56:39.572Z,364.20
2018-05-17T02:59:14.002Z,423.60
2018-05-17T03:01:43.810Z,660.80
2018-05-17T03:04:14.947Z,732.80
2018-05-17T03:06:44.555Z,883.83
2018-05-17T03:09:14.230Z,967.43
2018-05-17T03:11:43.848Z,934.03
2018-05-17T03:14:13.590Z,982.20
2018-05-17T03:16:43.907Z,1417.37
2018-05-17T03:19:13.575Z,1154.23
2018-05-17T03:21:43.099Z,754.00
2018-05-17T03:24:13.057Z,948.30
2018-05-17T03:26:42.862Z,1130.33
2018-05-17T03:29:13.355Z,1095.00
2018-05-17T03:31:43.094Z,993.43
2018-05-17T03:34:13.309Z,1035.37
2018-05-17T03:36:42.839Z,1083.93
2018-05-17T03:39:12.416Z,416.50
2018-05-17T03:41:41.958Z,637.43
2018-05-17T03:44:11.473Z,463.87
2018-05-17T03:46:41.874Z,1711.47
2018-05-17T03:49:11.584Z,1325.57
2018-05-17T03:51:41.404Z,1342.50
2018-05-17T03:54:10.903Z,1236.80
2018-05-17T03:56:40.455Z,481.33
2018-05-17T03:59:10.083Z,144.07
2018-05-17T04:01:57.556Z,222.97
2018-05-17T04:04:45.053Z,238.73
2018-05-17T04:07:14.799Z,271.17
2018-05-17T04:09:44.458Z,829.90
2018-05-17T04:12:14.181Z,332.30
2018-05-17T04:14:43.920Z,406.87
2018-05-17T04:17:13.469Z,493.30
2018-05-17T04:19:43.128Z,772.37
2018-05-17T04:22:12.854Z,936.67
2018-05-17T04:24:42.463Z,864.17
2018-05-17T04:27:12.048Z,411.00
2018-05-17T04:29:41.666Z,610.97
2018-05-17T04:32:12.524Z,960.70
2018-05-17T04:34:42.956Z,616.00
2018-05-17T04:37:13.436Z,853.63
2018-05-17T04:39:43.070Z,573.10
2018-05-17T04:42:12.577Z,395.20
2018-05-17T04:44:42.349Z,674.27
2018-05-17T04:47:12.165Z,524.37
2018-05-17T04:49:41.732Z,556.27
2018-05-17T04:52:12.787Z,984.37
2018-05-17T04:54:42.309Z,1319.63
2018-05-17T04:57:11.830Z,989.70
2018-05-17T04:59:41.571Z,592.03
2018-05-17T05:02:11.283Z,609.87
2018-05-17T05:04:40.821Z,993.93
2018-05-17T05:07:10.563Z,988.77
2018-05-17T05:09:40.322Z,814.40
2018-05-17T05:12:10.070Z,391.90
2018-05-17T05:14:39.678Z,847.90
2018-05-17T05:17:09.937Z,1101.13
2018-05-17T05:19:39.554Z,1172.63
2018-05-17T05:22:09.116Z,858.40
2018-05-17T05:24:39.781Z,817.27
2018-05-17T05:27:09.354Z,767.33
2018-05-17T05:29:39.846Z,502.17
2018-05-17T05:32:09.417Z,908.83
2018-05-17T05:34:40.487Z,461.43
2018-05-17T05:37:11.440Z,1137.77
2018-05-17T05:39:41.962Z,607.27
2018-05-17T05:42:11.883Z,466.40
2018-05-17T05:44:41.459Z,599.70
2018-05-17T05:47:10.963Z,219.87
2018-05-17T05:49:40.760Z,994.00
2018-05-17T05:52:10.321Z,584.67
2018-05-17T05:54:39.895Z,833.17
2018-05-17T05:57:09.528Z,716.23
2018-05-17T05:59:39.335Z,1125.13
2018-05-17T06:02:09.087Z,1113.47
2018-05-17T06:04:38.973Z,78.10
2018-05-17T06:07:08.676Z,572.23
2018-05-17T06:09:38.504Z,140.20
2018-05-17T06:12:08.266Z,673.33
2018-05-17T06:14:38.123Z,422.27
2018-05-17T06:17:09.243Z,70.43
2018-05-17T06:19:39.372Z,11.70
2018-05-17T06:22:09.823Z,10.30
2018-05-17T06:24:39.626Z,54.60
2018-05-17T06:27:10.674Z,147.60
2018-05-17T06:29:40.227Z,176.00
2018-05-17T06:32:09.740Z,81.23
2018-05-17T06:34:39.603Z,13.47
2018-05-17T06:37:09.304Z,22.07
2018-05-17T06:39:38.884Z,137.43
2018-05-17T06:42:09.036Z,39.93
2018-05-17T06:44:38.688Z,67.03
2018-05-17T06:47:09.081Z,57.70
2018-05-17T06:49:38.855Z,44.03
2018-05-17T06:52:08.486Z,11.03
2018-05-17T06:54:40.324Z,10.00
2018-05-17T06:57:10.063Z,9.50
2018-05-17T06:59:39.666Z,9.80
2018-05-17T07:02:09.665Z,8.53
2018-05-17T07:04:39.168Z,7.33
2018-05-17T07:07:08.689Z,8.17
2018-05-17T07:09:38.418Z,7.57
2018-05-17T07:12:08.134Z,10.63
2018-05-17T07:14:37.813Z,7.23
2018-05-17T07:17:07.307Z,9.40
2018-05-17T07:19:37.120Z,6.40
2018-05-17T07:22:06.739Z,8.03
2018-05-17T07:24:36.316Z,6.50
2018-05-17T07:27:07.670Z,6.53
2018-05-17T07:29:38.454Z,6.30
2018-05-17T07:32:08.269Z,6.43
2018-05-17T07:34:37.824Z,7.67
2018-05-17T07:37:09.407Z,6.87
2018-05-17T07:39:39.252Z,6.63
2018-05-17T07:42:08.948Z,6.67
2018-05-17T07:44:38.638Z,8.80
2018-05-17T07:47:08.399Z,6.23
2018-05-17T07:49:38.087Z,5.87
2018-05-17T07:52:07.721Z,8.57
2018-05-17T07:54:37.710Z,6.63
2018-05-17T07:57:22.616Z,5.30
2018-05-17T07:59:54.232Z,6.33
2018-05-17T08:02:23.910Z,6.27
2018-05-17T08:04:53.378Z,9.27
2018-05-17T08:07:23.767Z,3.47
2018-05-17T08:09:53.487Z,6.40
2018-05-17T08:12:24.735Z,4.43
2018-05-17T08:14:54.449Z,3.47
2018-05-17T08:17:24.146Z,4.20
2018-05-17T08:19:56.324Z,7.57
2018-05-17T08:22:27.051Z,6.30
2018-05-17T08:24:56.870Z,4.70
2018-05-17T08:27:26.658Z,6.20
2018-05-17T08:29:56.231Z,4.80
2018-05-17T08:32:25.927Z,5.97
2018-05-17T08:34:56.354Z,4.07
2018-05-17T08:37:27.078Z,6.43
2018-05-17T08:39:57.798Z,4.07
2018-05-17T08:42:29.466Z,5.93
2018-05-17T08:44:59.369Z,6.30
2018-05-17T08:47:29.323Z,5.43
2018-05-17T08:49:59.036Z,7.40
2018-05-17T08:52:28.788Z,4.67
2018-05-17T08:54:58.512Z,6.07
2018-05-17T08:57:28.118Z,6.97
2018-05-17T08:59:57.626Z,5.67
2018-05-17T09:02:27.265Z,5.10
2018-05-17T09:04:56.896Z,5.13
2018-05-17T09:07:27.489Z,4.77
2018-05-17T09:09:57.026Z,3.53
2018-05-17T09:12:26.801Z,4.03
2018-05-17T09:14:56.619Z,5.67
2018-05-17T09:17:27.039Z,4.03
2018-05-17T09:19:56.728Z,4.23
2018-05-17T09:22:26.439Z,5.53
2018-05-17T09:24:56.173Z,5.13
2018-05-17T09:27:25.908Z,8.00
2018-05-17T09:29:56.830Z,5.03
2018-05-17T09:32:26.413Z,4.63
2018-05-17T09:34:56.155Z,3.77
2018-05-17T09:37:26.196Z,5.33
2018-05-17T09:39:57.875Z,5.87
2018-05-17T09:42:55.245Z,3.03
2018-05-17T09:49:05.051Z,6.20
2018-05-17T09:51:39.086Z,4.33
2018-05-17T09:54:08.771Z,7.20
2018-05-17T09:56:38.482Z,4.50
2018-05-17T09:59:08.038Z,4.30
2018-05-17T10:01:38.445Z,4.60
2018-05-17T10:04:07.936Z,4.10
2018-05-17T10:06:38.422Z,5.50
2018-05-17T10:09:08.059Z,2.63
2018-05-17T10:11:37.645Z,4.70
2018-05-17T10:14:07.329Z,4.27
2018-05-17T10:16:37.627Z,3.37
2018-05-17T10:19:07.619Z,3.10
2018-05-17T10:21:37.245Z,8.33
2018-05-17T10:24:06.931Z,3.73
2018-05-17T10:26:36.453Z,4.23
2018-05-17T10:29:06.952Z,3.37
2018-05-17T10:31:36.661Z,4.50
2018-05-17T10:34:14.283Z,3.70
2018-05-17T10:36:43.906Z,2.70
2018-05-17T10:39:13.790Z,4.60
2018-05-17T10:41:44.471Z,4.73
2018-05-17T10:44:14.780Z,5.20
2018-05-17T10:46:44.463Z,4.57
2018-05-17T10:49:14.060Z,3.50
2018-05-17T10:51:43.742Z,3.90
2018-05-17T10:54:14.146Z,3.97
2018-05-17T10:56:44.554Z,2.90
2018-05-17T10:59:14.441Z,4.00
2018-05-17T11:01:44.063Z,4.70
2018-05-17T11:04:14.705Z,3.50
2018-05-17T11:06:44.224Z,3.17
2018-05-17T11:09:14.129Z,4.80
2018-05-17T11:11:43.749Z,5.03
2018-05-17T11:14:14.195Z,4.23
2018-05-17T11:16:43.972Z,6.40
2018-05-17T11:19:13.786Z,4.60
2018-05-17T11:21:43.555Z,4.43
2018-05-17T11:24:14.029Z,4.67
2018-05-17T11:26:43.889Z,3.73
2018-05-17T11:29:13.595Z,2.90
2018-05-17T11:31:43.300Z,2.83
2018-05-17T11:34:14.510Z,5.10
2018-05-17T11:36:44.042Z,5.23
2018-05-17T11:39:13.694Z,4.03
2018-05-17T11:41:43.536Z,2.33
2018-05-17T11:44:13.224Z,6.90
2018-05-17T11:46:42.923Z,3.00
2018-05-17T11:49:12.599Z,4.00
2018-05-17T11:51:42.993Z,2.60
2018-05-17T11:54:12.637Z,3.10
2018-05-17T11:56:43.013Z,4.20
2018-05-17T11:59:27.734Z,3.43
2018-05-17T12:01:58.013Z,3.77
2018-05-17T12:04:28.684Z,4.13
2018-05-17T12:06:58.361Z,4.50
2018-05-17T12:09:27.850Z,2.90
2018-05-17T12:11:57.467Z,2.40
2018-05-17T12:14:27.050Z,3.62
2018-05-17T12:16:56.590Z,3.87
2018-05-17T12:19:26.410Z,4.77
2018-05-17T12:21:56.109Z,3.33
2018-05-17T12:24:25.706Z,3.37
2018-05-17T12:26:56.724Z,2.73
2018-05-17T12:29:26.438Z,3.43
2018-05-17T12:31:56.155Z,2.55
2018-05-17T12:34:25.679Z,4.60
2018-05-17T12:36:56.109Z,5.27
2018-05-17T12:39:25.629Z,6.00
2018-05-17T12:41:55.223Z,3.77
2018-05-17T12:44:24.760Z,3.03
2018-05-17T12:46:54.364Z,3.60
2018-05-17T12:49:24.052Z,3.10
2018-05-17T12:51:53.661Z,2.60
2018-05-17T12:54:23.773Z,2.83
2018-05-17T12:56:53.575Z,3.37
2018-05-17T12:59:24.129Z,4.47
2018-05-17T13:01:53.839Z,3.43
2018-05-17T13:04:24.368Z,2.93
2018-05-17T13:06:54.106Z,3.13
2018-05-17T13:09:23.737Z,4.17
2018-05-17T13:11:54.032Z,4.13
2018-05-17T13:14:23.580Z,9.70
2018-05-17T13:16:53.328Z,6.23
2018-05-17T13:19:23.811Z,4.60
2018-05-17T13:21:54.621Z,3.93
2018-05-17T13:24:25.625Z,4.97
2018-05-17T13:26:55.422Z,4.87
2018-05-17T13:29:26.227Z,6.13
2018-05-17T13:31:55.895Z,5.67
2018-05-17T13:34:25.722Z,5.50
2018-05-17T13:36:56.918Z,4.43
2018-05-17T13:39:27.362Z,2.63
2018-05-17T13:41:57.304Z,5.43
2018-05-17T13:44:26.942Z,4.17
2018-05-17T13:46:57.550Z,5.57
2018-05-17T13:49:27.070Z,6.40
2018-05-17T13:51:58.038Z,5.70
2018-05-17T13:54:28.405Z,4.93
2018-05-17T13:56:58.087Z,5.17
2018-05-17T13:59:27.848Z,5.87
2018-05-17T14:02:01.520Z,5.47
2018-05-17T14:04:31.319Z,4.97
2018-05-17T14:07:00.986Z,7.47
2018-05-17T14:09:31.566Z,7.83
2018-05-17T14:12:03.390Z,6.30
2018-05-17T14:14:32.948Z,8.20
2018-05-17T14:17:03.067Z,4.23
2018-05-17T14:19:33.385Z,4.73
2018-05-17T14:22:03.586Z,7.87
2018-05-17T14:24:33.227Z,6.57
2018-05-17T14:27:05.123Z,6.67
2018-05-17T14:29:35.597Z,10.47
2018-05-17T14:32:05.311Z,9.10
2018-05-17T14:34:34.917Z,7.77
2018-05-17T14:37:04.918Z,10.43
2018-05-17T14:39:34.517Z,7.50
2018-05-17T14:42:04.888Z,9.50
2018-05-17T14:44:35.660Z,8.63
2018-05-17T14:47:05.975Z,6.07
2018-05-17T14:49:35.831Z,8.97
2018-05-17T14:52:05.955Z,9.37
2018-05-17T14:54:36.064Z,8.47
2018-05-17T14:57:07.253Z,6.20
2018-05-17T14:59:37.060Z,6.30
2018-05-17T15:02:06.700Z,8.83
2018-05-17T15:04:37.150Z,7.90
2018-05-17T15:07:08.140Z,7.67
2018-05-17T15:09:37.718Z,10.57
2018-05-17T15:12:07.232Z,6.80
2018-05-17T15:14:37.075Z,6.53
2018-05-17T15:17:06.645Z,6.30
2018-05-17T15:19:38.136Z,13.63
2018-05-17T15:22:07.860Z,10.03
2018-05-17T15:24:37.724Z,9.57
2018-05-17T15:27:07.259Z,8.23
2018-05-17T15:29:36.979Z,6.60
2018-05-17T15:32:06.544Z,8.80
2018-05-17T15:34:37.119Z,10.20
2018-05-17T15:37:06.926Z,9.27
2018-05-17T15:39:36.722Z,11.20
2018-05-17T15:42:06.495Z,7.87
2018-05-17T15:44:37.046Z,8.77
2018-05-17T15:47:06.995Z,8.50
2018-05-17T15:49:36.804Z,10.20
2018-05-17T15:52:06.439Z,9.57
2018-05-17T15:54:36.265Z,10.20
2018-05-17T15:57:05.917Z,9.07
2018-05-17T15:59:37.226Z,11.90
2018-05-17T16:02:07.914Z,10.67
2018-05-17T16:04:37.748Z,9.03
2018-05-17T16:07:14.425Z,9.97
2018-05-17T16:09:44.161Z,8.47
2018-05-17T16:12:13.966Z,10.90
2018-05-17T16:14:44.624Z,11.80
2018-05-17T16:17:15.916Z,10.77
2018-05-17T16:19:45.680Z,9.90
2018-05-17T16:22:15.544Z,12.47
2018-05-17T16:24:45.256Z,10.50
2018-05-17T16:27:15.113Z,7.73
2018-05-17T16:29:56.012Z,7.77
2018-05-17T16:32:46.735Z,11.27
2018-05-17T16:35:20.415Z,8.47
2018-05-17T16:37:50.178Z,12.40
2018-05-17T16:40:20.263Z,9.33
2018-05-17T16:42:50.075Z,8.47
2018-05-17T16:45:19.700Z,8.47
2018-05-17T16:47:49.383Z,12.70
2018-05-17T16:50:20.850Z,7.47
2018-05-17T16:52:50.739Z,8.03
2018-05-17T16:55:20.626Z,6.93
2018-05-17T16:57:50.295Z,7.73
2018-05-17T17:00:20.327Z,6.07
2018-05-17T17:02:50.102Z,8.27
2018-05-17T17:05:19.633Z,8.77
2018-05-17T17:07:50.755Z,7.57
2018-05-17T17:10:20.599Z,8.67
2018-05-17T17:12:50.410Z,8.00
2018-05-17T17:15:31.593Z,7.13
2018-05-17T17:18:03.857Z,11.57
2018-05-17T17:20:33.375Z,8.50
2018-05-17T17:23:03.393Z,8.27
2018-05-17T17:25:33.131Z,6.43
2018-05-17T17:28:03.947Z,8.90
2018-05-17T17:30:33.523Z,6.37
2018-05-17T17:33:04.782Z,9.97
2018-05-17T17:35:34.370Z,8.47
2018-05-17T17:38:04.482Z,8.57
2018-05-17T17:40:39.861Z,9.70
2018-05-17T17:43:10.176Z,10.60
2018-05-17T17:45:45.727Z,5.90
2018-05-17T17:48:21.691Z,7.67
2018-05-17T17:51:02.834Z,9.87
2018-05-17T17:53:46.445Z,6.97
2018-05-17T17:56:17.658Z,9.60
2018-05-17T17:58:47.143Z,7.27
2018-05-17T18:01:16.752Z,6.63
2018-05-17T18:03:46.531Z,7.63
2018-05-17T18:06:16.291Z,10.73
2018-05-17T18:08:45.816Z,8.37
2018-05-17T18:11:15.680Z,7.37
2018-05-17T18:13:45.335Z,8.37
2018-05-17T18:16:14.909Z,10.93
2018-05-17T18:18:44.809Z,11.73
2018-05-17T18:21:14.558Z,14.07
2018-05-17T18:23:44.142Z,13.17
2018-05-17T18:26:14.061Z,11.20
2018-05-17T18:28:43.713Z,14.93
2018-05-17T18:31:13.345Z,11.67
2018-05-17T18:33:43.866Z,15.70
2018-05-17T18:36:14.275Z,14.20
2018-05-17T18:38:45.393Z,13.27
2018-05-17T18:41:14.981Z,11.40
2018-05-17T18:43:45.025Z,13.43
2018-05-17T18:46:14.776Z,11.00
2018-05-17T18:48:44.856Z,12.63
2018-05-17T18:51:16.106Z,11.10
2018-05-17T18:53:45.923Z,8.23
2018-05-17T18:56:15.629Z,12.10
2018-05-17T18:58:51.163Z,10.43
2018-05-17T19:01:20.889Z,10.27
2018-05-17T19:03:51.429Z,7.20
2018-05-17T19:06:21.256Z,8.47
2018-05-17T19:08:52.348Z,9.57
2018-05-17T19:11:21.994Z,7.43
2018-05-17T19:13:52.505Z,6.17
2018-05-17T19:16:22.428Z,5.70
2018-05-17T19:18:52.345Z,8.73
2018-05-17T19:21:22.229Z,5.53
2018-05-17T19:23:51.977Z,6.40
2018-05-17T19:26:26.172Z,9.73
2018-05-17T19:28:55.884Z,7.07
2018-05-17T19:31:26.213Z,7.27
2018-05-17T19:33:55.809Z,11.07
2018-05-17T19:36:26.334Z,1034.80
2018-05-17T19:38:56.096Z,10.40
2018-05-17T19:41:25.891Z,11.83
2018-05-17T19:43:55.717Z,12.17
2018-05-17T19:46:25.330Z,10.27
2018-05-17T19:48:54.994Z,8.83
2018-05-17T20:01:14.615Z,13.20
2018-05-17T20:04:05.210Z,8.60
2018-05-17T20:06:35.168Z,6.50
2018-05-17T20:09:06.844Z,7.83
2018-05-17T20:11:36.684Z,8.67
2018-05-17T20:14:06.735Z,5.13
2018-05-17T20:16:36.497Z,8.63
2018-05-17T20:19:06.311Z,5.50
2018-05-17T20:21:36.109Z,6.73
2018-05-17T20:24:07.001Z,5.87
2018-05-17T20:26:36.734Z,5.97
2018-05-17T20:29:06.399Z,7.83
2018-05-17T20:31:36.014Z,8.17
2018-05-17T20:34:05.700Z,7.30
2018-05-17T20:36:41.897Z,8.30
2018-05-17T20:39:13.998Z,7.27
2018-05-17T20:41:43.661Z,7.13
2018-05-17T20:44:15.327Z,7.57
2018-05-17T20:46:50.972Z,7.67
2018-05-17T20:49:22.403Z,8.57
2018-05-17T20:51:53.227Z,9.90
2018-05-17T20:54:24.274Z,8.10
2018-05-17T20:56:57.052Z,10.23
2018-05-17T20:59:28.985Z,9.43
2018-05-17T21:02:00.867Z,9.00
2018-05-17T21:07:55.889Z,9.73
2018-05-17T21:17:50.705Z,4.63
2018-05-17T21:23:48.807Z,5.27
2018-05-17T21:26:19.677Z,7.57
2018-05-17T21:28:50.508Z,6.80
2018-05-17T21:31:20.106Z,4.37
2018-05-17T21:33:50.258Z,4.30
2018-05-17T21:36:20.778Z,8.87
2018-05-17T21:39:31.213Z,8.03
2018-05-17T21:42:18.532Z,5.47
2018-05-17T21:44:48.498Z,7.77
2018-05-17T21:47:19.144Z,8.07
2018-05-17T21:49:48.839Z,9.37
2018-05-17T21:52:18.614Z,10.13
2018-05-17T21:54:49.576Z,19.70
2018-05-17T21:57:19.830Z,17.07
2018-05-17T22:03:24.855Z,28.30
2018-05-17T22:05:54.638Z,29.30
2018-05-17T22:08:25.380Z,27.33
2018-05-17T22:10:55.290Z,21.53
2018-05-17T22:13:26.079Z,27.37
2018-05-17T22:15:56.080Z,22.83
2018-05-17T22:18:26.480Z,20.27
2018-05-17T22:20:57.382Z,25.03
2018-05-17T22:23:27.162Z,27.00
2018-05-17T22:25:56.794Z,25.87
2018-05-17T22:28:27.326Z,21.70
2018-05-17T22:30:58.013Z,17.43
2018-05-17T22:33:27.841Z,20.57
2018-05-17T22:35:57.503Z,15.33
2018-05-17T22:38:27.080Z,20.13
2018-05-17T22:41:34.653Z,22.93
2018-05-17T22:44:04.977Z,16.43
2018-05-17T22:46:36.296Z,10.47
2018-05-17T22:49:06.995Z,13.33
2018-05-17T22:51:38.099Z,18.47
2018-05-17T22:54:07.865Z,13.97
2018-05-17T22:56:55.542Z,14.77
2018-05-17T22:59:25.632Z,17.47
2018-05-17T23:01:55.551Z,15.30
2018-05-17T23:04:25.256Z,14.80
2018-05-17T23:06:55.212Z,14.27
2018-05-17T23:09:25.000Z,14.50
2018-05-17T23:11:54.814Z,15.77
2018-05-17T23:14:24.627Z,16.97
2018-05-17T23:16:54.252Z,17.20
2018-05-17T23:19:24.381Z,21.33
2018-05-17T23:21:54.376Z,23.73
2018-05-17T23:24:24.746Z,21.57
2018-05-17T23:26:59.661Z,20.23
2018-05-17T23:29:30.676Z,18.83
2018-05-17T23:32:01.627Z,20.50
2018-05-17T23:34:32.055Z,312.63
2018-05-17T23:37:02.271Z,561.37
2018-05-17T23:39:32.683Z,13.43
2018-05-17T23:42:03.107Z,30.10
2018-05-17T23:44:33.397Z,27.43
2018-05-17T23:47:06.089Z,27.03
2018-05-17T23:49:37.897Z,32.30
2018-05-17T23:52:07.760Z,28.90
2018-05-17T23:54:37.421Z,27.63
2018-05-17T23:57:07.140Z,36.70
